Time;durP1;ratioP1;P1;durP2;ratioP2;P2;SDS_P1;SDS_P2;PMS_P1;PMS_P2;Temp;Humidity;BMP_temperature;BMP_pressure;BME280_temperature;BME280_humidity;BME280_pressure;Samples;Min_cycle;Max_cycle;Signal;HPM_P1;HPM_P2
2024/01/28 00:00:16;;;;;;;291.55;95.35;;;;;;;-142.57;100.00;87122.53;5038148;28;20162;-85
2024/01/28 00:02:42;;;;;;;240.73;101.03;;;;;;;-142.57;100.00;87643.91;5055883;28;20390;-81
2024/01/28 00:05:07;;;;;;;274.70;96.25;;;;;;;-142.57;100.00;87643.91;5055638;28;20037;-81
2024/01/28 00:07:33;;;;;;;255.18;93.78;;;;;;;-142.57;100.00;87122.53;5055780;28;20493;-79
2024/01/28 00:09:59;;;;;;;241.63;94.65;;;;;;;-142.57;100.00;84777.19;5037768;28;20363;-79
2024/01/28 00:12:24;;;;;;;248.15;93.25;;;;;;;-142.57;100.00;83474.81;5055893;28;20044;-86
2024/01/28 00:14:53;;;;;;;236.23;94.22;;;;;;;-142.57;100.00;83735.25;5056192;28;20029;-81
2024/01/28 00:17:18;;;;;;;239.48;91.95;;;;;;;-142.57;100.00;84516.69;5038031;28;20037;-86
2024/01/28 00:19:44;;;;;;;224.95;89.35;;;;;;;-142.57;100.00;83995.72;5037875;28;20025;-88
2024/01/28 00:22:09;;;;;;;218.38;89.63;;;;;;;-142.57;100.00;83735.25;5055877;28;20459;-79
2024/01/28 00:24:35;;;;;;;231.23;90.25;;;;;;;-142.57;100.00;83474.81;5037608;28;20509;-83
2024/01/28 00:27:00;;;;;;;220.98;91.93;;;;;;;-142.57;100.00;83735.25;5056098;28;20040;-83
2024/01/28 00:29:29;;;;;;;322.20;89.88;;;;;;;-142.57;100.00;81652.19;5056618;28;20057;-85
2024/01/28 00:32:01;;;;;;;294.00;91.75;;;;;;;-142.57;100.00;80611.06;5055955;28;20561;-84
2024/01/28 00:34:26;;;;;;;341.40;90.70;;;;;;;-142.57;100.00;81391.91;5056164;28;20051;-85
2024/01/28 00:36:53;;;;;;;271.75;93.28;;;;;;;-142.57;100.00;81912.53;5056204;28;20044;-84
2024/01/28 00:39:19;;;;;;;263.92;90.82;;;;;;;-142.57;100.00;83474.81;5056199;28;20033;-81
2024/01/28 00:41:45;;;;;;;256.67;90.35;;;;;;;-142.57;100.00;84256.19;5055586;28;20124;-84
2024/01/28 00:44:10;;;;;;;246.20;90.57;;;;;;;-142.57;100.00;83474.81;5055617;28;20037;-79
2024/01/28 00:46:36;;;;;;;233.77;90.75;;;;;;;-142.57;100.00;84777.19;5055647;28;20033;-81
2024/01/28 00:49:03;;;;;;;252.20;90.93;;;;;;;-142.57;100.00;84256.19;5055859;28;20033;-86
2024/01/28 00:51:31;;;;;;;257.58;89.47;;;;;;;-142.57;100.00;83214.41;5055769;28;20439;-79
2024/01/28 00:53:57;;;;;;;269.92;91.82;;;;;;;-142.57;100.00;82433.22;5055328;28;20037;-83
2024/01/28 00:56:23;;;;;;;239.63;88.07;;;;;;;-142.57;100.00;81912.53;5054458;28;20445;-83
2024/01/28 00:58:49;;;;;;;278.88;89.63;;;;;;;-142.57;100.00;81652.19;5054872;28;20394;-81
2024/01/28 01:01:14;;;;;;;235.35;89.43;;;;;;;-142.57;100.00;81912.53;5055048;28;20025;-80
2024/01/28 01:03:40;;;;;;;233.20;89.05;;;;;;;-142.57;100.00;83214.41;5054995;28;20031;-84
2024/01/28 01:06:06;;;;;;;374.17;91.30;;;;;;;-142.57;100.00;82172.88;5054173;28;20056;-83
2024/01/28 01:08:32;;;;;;;272.13;89.10;;;;;;;-142.57;100.00;82433.22;5053430;28;20478;-84
2024/01/28 01:11:03;;;;;;;265.70;83.68;;;;;;;-142.57;100.00;82693.59;5055003;28;20078;-82
2024/01/28 01:13:31;;;;;;;275.35;89.97;;;;;;;-142.57;100.00;82433.22;5054589;28;20450;-80
2024/01/28 01:15:57;;;;;;;370.83;87.28;;;;;;;-142.57;100.00;82433.22;5054757;28;20029;-83
2024/01/28 01:18:23;;;;;;;245.38;86.13;;;;;;;-142.57;100.00;82693.59;5054595;28;20474;-83
2024/01/28 01:20:50;;;;;;;249.70;81.55;;;;;;;-142.57;100.00;82693.59;5054908;28;20136;-83
2024/01/28 01:23:16;;;;;;;204.18;84.45;;;;;;;-142.57;100.00;82954.00;5054812;28;20036;-80
2024/01/28 01:25:41;;;;;;;252.15;86.10;;;;;;;-142.57;100.00;83474.81;5054790;28;20125;-82
2024/01/28 01:28:07;;;;;;;277.98;83.53;;;;;;;-142.57;100.00;82433.22;5055383;28;20040;-83
2024/01/28 01:30:33;;;;;;;260.15;83.45;;;;;;;-142.57;100.00;81912.53;5055331;28;20060;-84
2024/01/28 01:32:58;;;;;;;225.40;82.95;;;;;;;-142.57;100.00;82172.88;5054876;28;20037;-80
2024/01/28 01:35:24;;;;;;;237.07;82.25;;;;;;;-142.57;100.00;82433.22;5054675;28;20048;-86
2024/01/28 01:37:49;;;;;;;243.75;83.72;;;;;;;-142.57;100.00;81391.91;5055394;28;20147;-85
2024/01/28 01:40:15;;;;;;;188.60;81.68;;;;;;;-142.57;100.00;80871.34;5057350;28;20037;-84
2024/01/28 01:42:43;;;;;;;193.80;80.85;;;;;;;-142.57;100.00;80090.63;5057302;28;20029;-85
2024/01/28 01:45:08;;;;;;;214.55;78.22;;;;;;;-142.57;100.00;78529.63;5056539;28;20087;-85
2024/01/28 01:47:34;;;;;;;233.40;78.18;;;;;;;-142.57;100.00;77229.28;5056516;28;20033;-85
2024/01/28 01:50:01;;;;;;;178.68;79.90;;;;;;;-142.57;100.00;76449.28;5038977;28;20041;-83
2024/01/28 01:52:28;;;;;;;234.07;80.05;;;;;;;-142.57;100.00;77229.28;5055680;28;20052;-83
2024/01/28 01:54:54;;;;;;;254.20;82.18;;;;;;;-142.57;100.00;76709.25;5056526;28;20470;-84
2024/01/28 01:57:20;;;;;;;188.52;80.97;;;;;;;-142.57;100.00;77489.31;5056151;28;20044;-83
2024/01/28 01:59:46;;;;;;;269.17;80.70;;;;;;;-142.57;100.00;77489.31;5054217;28;20025;-78
2024/01/28 02:02:12;;;;;;;253.40;78.75;;;;;;;-142.57;100.00;76969.25;5053888;28;20037;-84
2024/01/28 02:04:38;;;;;;;189.23;79.05;;;;;;;-142.57;100.00;75409.50;5054060;28;20044;-79
2024/01/28 02:07:04;;;;;;;277.25;76.70;;;;;;;-142.57;100.00;73850.34;5054284;28;20484;-77
2024/01/28 02:09:31;;;;;;;215.73;78.85;;;;;;;-142.57;100.00;74889.72;5054137;28;20029;-79
2024/01/28 02:11:57;;;;;;;219.73;78.05;;;;;;;-142.57;100.00;76709.25;5053951;28;20400;-79
2024/01/28 02:14:29;;;;;;;232.23;78.47;;;;;;;-142.57;100.00;78009.44;5053060;28;20049;-79
2024/01/28 02:17:01;;;;;;;232.05;76.97;;;;;;;-142.57;100.00;79310.06;5055721;28;20520;-79
2024/01/28 02:19:27;;;;;;;178.90;78.70;;;;;;;-142.57;100.00;80090.63;5056549;28;20041;-82
2024/01/28 02:21:53;;;;;;;289.15;81.55;;;;;;;-142.57;100.00;78789.75;5053674;28;20033;-84
2024/01/28 02:24:20;;;;;;;161.10;74.80;;;;;;;-142.57;100.00;78789.75;5053797;28;20036;-79
2024/01/28 02:26:45;;;;;;;256.98;77.50;;;;;;;-142.57;100.00;76969.25;5053232;28;20072;-78
2024/01/28 02:29:11;;;;;;;275.90;79.35;;;;;;;-142.57;100.00;76449.28;5053146;28;20449;-84
2024/01/28 02:31:36;;;;;;;220.02;78.25;;;;;;;-142.57;100.00;76709.25;5053748;28;20067;-82
2024/01/28 02:34:02;;;;;;;269.00;80.47;;;;;;;-142.57;100.00;77229.28;5053528;28;20486;-87
2024/01/28 02:36:29;;;;;;;221.73;77.60;;;;;;;-142.57;100.00;79310.06;5053134;28;20038;-79
2024/01/28 02:38:54;;;;;;;228.95;75.32;;;;;;;-142.57;100.00;80350.84;5053247;28;20036;-78
2024/01/28 02:41:20;;;;;;;187.68;77.80;;;;;;;-142.57;100.00;79570.22;5053303;28;20041;-79
2024/01/28 02:43:46;;;;;;;270.35;77.88;;;;;;;-142.57;100.00;79310.06;5052016;28;20048;-78
2024/01/28 02:46:13;;;;;;;207.98;77.55;;;;;;;-142.57;100.00;80090.63;5053174;28;20064;-78
2024/01/28 02:48:38;;;;;;;232.55;76.03;;;;;;;-142.57;100.00;79830.41;5053202;28;20017;-86
2024/01/28 02:51:04;;;;;;;209.20;79.95;;;;;;;-142.57;100.00;79830.41;5051762;28;20043;-79
2024/01/28 02:53:29;;;;;;;207.20;77.85;;;;;;;-142.57;100.00;80090.63;5035204;28;20402;-83
2024/01/28 02:55:59;;;;;;;211.77;75.45;;;;;;;-142.57;100.00;79830.41;5053176;28;20036;-85
2024/01/28 02:58:26;;;;;;;314.98;77.15;;;;;;;-142.57;100.00;77489.31;5051835;28;20063;-86
2024/01/28 03:00:52;;;;;;;183.30;74.93;;;;;;;-142.57;100.00;77229.28;5053656;28;20048;-85
2024/01/28 03:03:18;;;;;;;222.38;76.88;;;;;;;-142.57;100.00;76969.25;5053151;28;20481;-84
2024/01/28 03:05:44;;;;;;;202.73;75.88;;;;;;;-142.57;100.00;75929.34;5035218;28;20112;-85
2024/01/28 03:08:10;;;;;;;293.20;75.97;;;;;;;-142.57;100.00;76189.31;5053032;28;20042;-85
2024/01/28 03:10:36;;;;;;;270.27;74.55;;;;;;;-142.57;100.00;74629.84;5053311;28;20095;-85
2024/01/28 03:13:01;;;;;;;214.45;74.88;;;;;;;-142.57;100.00;73186.66;5053738;28;20462;-85
2024/01/28 03:15:27;;;;;;;187.13;74.53;;;;;;;-142.57;100.00;72868.06;5053409;28;20025;-86
2024/01/28 03:17:52;;;;;;;167.13;72.15;;;;;;;-142.57;100.00;72531.22;5052985;28;20104;-85
2024/01/28 03:20:21;;;;;;;194.73;71.75;;;;;;;-142.57;100.00;72673.25;5053426;28;20391;-83
2024/01/28 03:22:46;;;;;;;241.43;72.78;;;;;;;-142.57;100.00;69073.13;5053158;28;20041;-85
2024/01/28 03:25:12;;;;;;;210.55;69.50;;;;;;;-142.57;100.00;69107.59;5052999;28;20041;-85
2024/01/28 03:30:21;;;;;;;211.15;75.82;;;;;;;-142.57;100.00;71386.97;5132070;27;20124;-86
2024/01/28 03:32:46;;;;;;;185.77;71.57;;;;;;;-142.57;100.00;69955.13;5111310;28;20036;-83
2024/01/28 03:35:12;;;;;;;207.20;73.00;;;;;;;-142.57;100.00;70719.66;5093204;28;20078;-83
2024/01/28 03:37:37;;;;;;;164.27;71.63;;;;;;;-142.57;100.00;71437.69;5092781;28;20028;-86
2024/01/28 03:40:05;;;;;;;173.20;69.32;;;;;;;-142.57;100.00;69717.88;5111185;28;20044;-80
2024/01/28 03:42:33;;;;;;;149.70;67.53;;;;;;;-142.57;100.00;67640.06;5111220;28;20047;-81
2024/01/28 03:44:59;;;;;;;188.95;69.20;;;;;;;-142.57;100.00;65988.72;5111235;28;20024;-81
2024/01/28 03:47:24;;;;;;;144.30;66.40;;;;;;;-142.57;100.00;64143.69;5110633;28;20039;-82
2024/01/28 03:49:50;;;;;;;202.13;66.28;;;;;;;-142.57;100.00;62754.88;5109374;28;20482;-84
2024/01/28 03:52:16;;;;;;;189.30;63.90;;;;;;;-142.57;100.00;61678.22;5110520;28;20088;-82
2024/01/28 03:54:41;;;;;;;189.02;64.68;;;;;;;-142.57;100.00;61969.59;5110952;28;20046;-83
2024/01/28 03:57:07;;;;;;;177.63;65.30;;;;;;;-142.57;100.00;62099.13;5111003;28;20038;-87
2024/01/28 03:59:32;;;;;;;192.05;66.47;;;;;;;-142.57;100.00;61763.19;5109371;28;20484;-80
2024/01/28 04:01:58;;;;;;;159.85;66.18;;;;;;;-142.57;100.00;61500.13;5110480;28;20032;-82
2024/01/28 04:04:24;;;;;;;143.50;62.50;;;;;;;-142.57;100.00;61714.63;5110285;28;20412;-83
2024/01/28 04:06:53;;;;;;;162.52;60.88;;;;;;;-142.57;100.00;61471.81;5110114;28;20040;-82
2024/01/28 04:09:18;;;;;;;160.27;57.78;;;;;;;-142.57;100.00;60646.31;5110041;28;20067;-80
2024/01/28 04:11:44;;;;;;;159.90;61.22;;;;;;;-142.57;100.00;59576.28;5110679;28;20088;-83
2024/01/28 04:14:09;;;;;;;124.88;57.00;;;;;;;-142.57;100.00;58486.28;5110349;28;20111;-81
2024/01/28 04:16:35;;;;;;;136.88;59.03;;;;;;;-142.57;100.00;58611.66;5111117;28;20031;-84
2024/01/28 04:19:00;;;;;;;133.50;59.95;;;;;;;-142.57;100.00;58298.25;5110191;28;20137;-81
2024/01/28 04:21:28;;;;;;;213.20;62.47;;;;;;;-142.57;100.00;58708.72;5110111;28;20028;-80
2024/01/28 04:23:56;;;;;;;169.02;62.17;;;;;;;-142.57;100.00;59471.09;5110426;28;20085;-85
2024/01/28 04:26:22;;;;;;;157.38;62.15;;;;;;;-142.57;100.00;59978.78;5109850;28;20032;-80
2024/01/28 04:28:47;;;;;;;166.35;61.63;;;;;;;-142.57;100.00;60796.03;5110202;28;20058;-79
2024/01/28 04:31:13;;;;;;;144.88;63.28;;;;;;;-142.57;100.00;61152.13;5110190;28;20057;-79
2024/01/28 04:33:39;;;;;;;137.38;63.22;;;;;;;-142.57;100.00;61670.09;5110025;28;20119;-79
2024/01/28 04:36:05;;;;;;;156.25;64.25;;;;;;;-142.57;100.00;62008.06;5110443;28;20500;-85
2024/01/28 04:38:31;;;;;;;138.43;61.45;;;;;;;-142.57;100.00;61943.31;5109924;28;20028;-84
2024/01/28 04:40:57;;;;;;;149.60;62.92;;;;;;;-142.57;100.00;62103.19;5100995;28;20081;-80
2024/01/28 04:43:22;;;;;;;156.95;64.53;;;;;;;-142.57;100.00;61747.00;5096194;28;20115;-80
2024/01/28 04:45:48;;;;;;;154.45;63.78;;;;;;;-142.57;100.00;61057.03;5095109;28;20105;-84
2024/01/28 04:48:13;;;;;;;161.98;67.80;;;;;;;-142.57;100.00;61204.72;5095616;28;20078;-78
2024/01/28 04:50:39;;;;;;;157.25;65.22;;;;;;;-142.57;100.00;61180.44;5096493;28;20423;-80
2024/01/28 04:53:04;;;;;;;137.52;62.30;;;;;;;-142.57;100.00;60878.97;5095978;28;20422;-82
2024/01/28 04:55:30;;;;;;;157.57;64.65;;;;;;;-142.57;100.00;60709.03;5095783;28;20058;-79
2024/01/28 04:57:56;;;;;;;149.65;64.00;;;;;;;-142.57;100.00;60707.00;5095909;28;20059;-84
2024/01/28 05:00:21;;;;;;;142.70;64.05;;;;;;;-142.57;100.00;60988.22;5095717;28;20444;-78
2024/01/28 05:02:47;;;;;;;164.07;68.40;;;;;;;-142.57;100.00;61411.09;5095003;28;20119;-85
2024/01/28 05:05:12;;;;;;;161.63;66.53;;;;;;;-142.57;100.00;60779.84;5095928;28;20146;-81
2024/01/28 05:07:39;;;;;;;156.55;68.00;;;;;;;-142.57;100.00;61099.50;5095180;28;20032;-80
2024/01/28 05:10:05;;;;;;;161.07;67.03;;;;;;;-142.57;100.00;61192.56;5095496;28;20028;-85
2024/01/28 05:12:30;;;;;;;146.90;66.95;;;;;;;-142.57;100.00;61449.56;5095429;28;20032;-83
2024/01/28 05:14:56;;;;;;;159.60;66.28;;;;;;;-142.57;100.00;61370.63;5094140;28;20028;-80
2024/01/28 05:17:23;;;;;;;148.65;63.58;;;;;;;-142.57;100.00;61435.38;5093904;28;20024;-80
2024/01/28 05:19:48;;;;;;;156.73;67.72;;;;;;;-142.57;100.00;62184.13;5095106;28;20173;-79
2024/01/28 05:22:19;;;;;;;147.07;66.95;;;;;;;-142.57;100.00;61860.34;5095157;28;20111;-79
2024/01/28 05:24:47;;;;;;;151.18;64.20;;;;;;;-142.57;100.00;61038.81;5093606;28;20036;-80
2024/01/28 05:27:13;;;;;;;140.50;61.60;;;;;;;-142.57;100.00;60702.97;5095140;28;20020;-79
2024/01/28 05:29:38;;;;;;;138.15;61.22;;;;;;;-142.57;100.00;60019.22;5094794;28;20130;-78
2024/01/28 05:32:04;;;;;;;123.70;56.63;;;;;;;-142.57;100.00;60185.09;5094746;28;20042;-82
2024/01/28 05:34:29;;;;;;;121.43;55.50;;;;;;;-142.57;100.00;59218.31;5094948;28;20043;-85
2024/01/28 05:36:55;;;;;;;124.93;56.38;;;;;;;-142.57;100.00;58805.78;5094330;28;20397;-81
2024/01/28 05:39:21;;;;;;;115.15;55.95;;;;;;;-142.57;100.00;58637.94;5094636;28;20094;-82
2024/01/28 05:41:46;;;;;;;116.70;55.88;;;;;;;-142.57;100.00;58142.56;5094318;28;20024;-81
2024/01/28 05:44:12;;;;;;;133.57;58.95;;;;;;;-142.57;100.00;58098.09;5094701;28;20036;-83
2024/01/28 05:46:37;;;;;;;123.55;55.70;;;;;;;-142.57;100.00;57895.94;5094156;28;20473;-81
2024/01/28 05:49:03;;;;;;;108.82;52.05;;;;;;;-142.57;100.00;57885.81;5095028;28;20123;-82
2024/01/28 05:51:32;;;;;;;124.50;54.67;;;;;;;-142.57;100.00;57467.38;5094122;28;20062;-84
2024/01/28 05:53:58;;;;;;;115.00;53.45;;;;;;;-142.57;100.00;57329.91;5094328;28;20020;-83
2024/01/28 05:56:24;;;;;;;118.90;54.40;;;;;;;-142.57;100.00;57348.09;5094413;28;20376;-80
2024/01/28 05:58:49;;;;;;;124.30;54.33;;;;;;;-142.57;100.00;57172.25;5094543;28;20071;-80
2024/01/28 06:01:15;;;;;;;118.18;52.58;;;;;;;-142.57;100.00;57127.78;5092940;28;20039;-82
2024/01/28 06:03:41;;;;;;;116.97;53.42;;;;;;;-142.57;100.00;57004.47;5094631;28;20342;-84
2024/01/28 06:06:07;;;;;;;110.45;52.35;;;;;;;-142.57;100.00;57034.81;5093721;28;20089;-82
2024/01/28 06:08:33;;;;;;;107.40;51.45;;;;;;;-142.57;100.00;56937.78;5094387;28;20032;-84
2024/01/28 06:10:58;;;;;;;127.68;54.00;;;;;;;-142.57;100.00;56913.53;5094797;28;20040;-83
2024/01/28 06:13:24;;;;;;;108.88;52.08;;;;;;;-142.57;100.00;56953.94;5094778;28;20026;-82
2024/01/28 06:15:52;;;;;;;103.55;50.10;;;;;;;-142.57;100.00;56982.25;5094666;28;20036;-82
2024/01/28 06:18:20;;;;;;;100.95;49.40;;;;;;;-142.57;100.00;56856.94;5095157;28;20093;-83
2024/01/28 06:20:46;;;;;;;104.38;50.20;;;;;;;-142.57;100.00;56751.84;5094963;28;20103;-85
2024/01/28 06:23:12;;;;;;;113.75;51.53;;;;;;;-142.57;100.00;56598.25;5093693;28;20488;-84
2024/01/28 06:25:37;;;;;;;108.43;50.35;;;;;;;-142.57;100.00;56610.38;5096192;28;20031;-85
2024/01/28 06:28:03;;;;;;;115.03;50.38;;;;;;;-142.57;100.00;56707.38;5100913;28;20521;-83
2024/01/28 06:30:32;;;;;;;99.22;47.67;;;;;;;-142.57;100.00;56559.84;5104432;28;20036;-85
2024/01/28 06:32:58;;;;;;;92.25;45.17;;;;;;;-142.57;100.00;56436.56;5103813;28;20101;-85
2024/01/28 06:35:23;;;;;;;84.90;44.55;;;;;;;-142.57;100.00;56315.31;5094892;28;20085;-85
2024/01/28 06:37:49;;;;;;;77.30;41.47;;;;;;;-142.57;100.00;56155.66;5092953;28;20043;-84
2024/01/28 06:40:15;;;;;;;81.03;41.65;;;;;;;-142.57;100.00;56046.56;5094162;28;20034;-84
2024/01/28 06:42:41;;;;;;;76.38;40.13;;;;;;;-142.57;100.00;55927.34;5093830;28;20059;-85
2024/01/28 06:45:10;;;;;;;75.95;40.63;;;;;;;-142.57;100.00;55915.22;5093684;28;20469;-83
2024/01/28 06:47:35;;;;;;;76.30;39.60;;;;;;;-142.57;100.00;55876.81;5093522;28;20115;-83
2024/01/28 06:50:04;;;;;;;70.80;39.08;;;;;;;-142.57;100.00;55874.78;5093921;28;20031;-83
2024/01/28 06:52:29;;;;;;;72.00;38.20;;;;;;;-142.57;100.00;55769.72;5093808;28;20054;-84
2024/01/28 06:54:55;;;;;;;70.53;37.92;;;;;;;-142.57;100.00;55862.69;5094537;28;20028;-83
2024/01/28 06:57:21;;;;;;;72.88;39.13;;;;;;;-142.57;100.00;55781.84;5094303;28;20123;-82
2024/01/28 06:59:46;;;;;;;78.13;37.53;;;;;;;-142.57;100.00;55723.25;5095044;28;20047;-87
2024/01/28 07:02:12;;;;;;;74.18;38.55;;;;;;;-142.57;100.00;55745.47;5093448;28;20020;-85
2024/01/28 07:04:39;;;;;;;80.63;40.42;;;;;;;-142.57;100.00;55826.31;5094552;28;20047;-84
2024/01/28 07:07:04;;;;;;;85.43;41.65;;;;;;;-142.57;100.00;55856.63;5095855;28;20474;-83
2024/01/28 07:09:31;;;;;;;77.05;40.25;;;;;;;-142.57;100.00;55899.03;5095347;28;20046;-87
2024/01/28 07:11:56;;;;;;;86.10;41.97;;;;;;;-142.57;100.00;55953.59;5095272;28;20036;-85
2024/01/28 07:14:22;;;;;;;85.18;43.05;;;;;;;-142.57;100.00;55961.69;5094462;28;20031;-90
2024/01/28 07:16:49;;;;;;;87.63;43.63;;;;;;;-142.57;100.00;55939.47;5095743;28;20028;-86
2024/01/28 07:19:15;;;;;;;89.45;45.33;;;;;;;-142.57;100.00;55992.00;5105857;28;20088;-79
2024/01/28 07:21:44;;;;;;;98.38;48.45;;;;;;;-142.57;100.00;56050.59;5119988;28;20024;-84
2024/01/28 07:24:10;;;;;;;106.57;48.30;;;;;;;-142.57;100.00;56165.78;5119075;28;20058;-80
2024/01/28 07:26:35;;;;;;;110.13;49.85;;;;;;;-142.57;100.00;56222.34;5117251;28;20026;-84
2024/01/28 07:29:01;;;;;;;115.25;51.05;;;;;;;-142.57;100.00;56222.34;5117410;28;20074;-85
2024/01/28 07:31:26;;;;;;;107.22;50.28;;;;;;;-142.57;100.00;56299.16;5116610;28;20450;-85
2024/01/28 07:33:53;;;;;;;103.68;48.80;;;;;;;-142.57;100.00;56278.94;5115265;28;20020;-84
2024/01/28 07:36:19;;;;;;;100.75;48.90;;;;;;;-142.57;100.00;56311.28;5114352;28;20074;-80
2024/01/28 07:38:44;;;;;;;100.07;49.58;;;;;;;-142.57;100.00;56400.19;5114247;28;20447;-79
2024/01/28 07:41:14;;;;;;;97.55;49.45;;;;;;;-142.57;100.00;56373.91;5113783;28;20038;-84
2024/01/28 07:43:43;;;;;;;97.78;47.75;;;;;;;-142.57;100.00;56327.44;5113932;28;20490;-83
2024/01/28 07:46:09;;;;;;;96.90;46.92;;;;;;;-142.57;100.00;56208.22;5114785;28;20039;-79
2024/01/28 07:48:34;;;;;;;95.10;47.90;;;;;;;-142.57;100.00;56167.78;5114062;28;20515;-79
2024/01/28 07:51:00;;;;;;;92.80;45.47;;;;;;;-142.57;100.00;56181.94;5114261;28;20055;-79
2024/01/28 07:53:26;;;;;;;92.60;45.47;;;;;;;-142.57;100.00;56214.28;5114976;28;20032;-82
2024/01/28 07:55:53;;;;;;;86.97;43.97;;;;;;;-142.57;100.00;56149.63;5115038;28;20031;-81
2024/01/28 07:58:19;;;;;;;80.15;40.90;;;;;;;-142.57;100.00;55975.84;5113478;28;20514;-80
2024/01/28 08:00:44;;;;;;;79.70;39.28;;;;;;;-142.57;100.00;55977.84;5113797;28;20036;-79
2024/01/28 08:03:10;;;;;;;81.18;39.85;;;;;;;-142.57;100.00;55796.00;5113427;28;20084;-81
2024/01/28 08:05:35;;;;;;;84.63;41.92;;;;;;;-142.57;100.00;55755.59;5115140;28;20032;-80
2024/01/28 08:08:01;;;;;;;84.55;43.88;;;;;;;-142.57;100.00;55840.44;5113903;28;20106;-80
2024/01/28 08:10:26;;;;;;;89.40;44.88;;;;;;;-142.57;100.00;55884.91;5113885;28;20039;-81
2024/01/28 08:12:55;;;;;;;83.07;40.92;;;;;;;-142.57;100.00;55822.25;5114529;28;20127;-80
2024/01/28 08:15:21;;;;;;;87.00;41.95;;;;;;;-142.57;100.00;55846.50;5113942;28;20061;-80
2024/01/28 08:17:49;;;;;;;89.38;42.58;;;;;;;-142.57;100.00;55876.81;5118439;28;20064;-82
2024/01/28 08:20:15;;;;;;;82.22;41.17;;;;;;;-142.57;100.00;55858.63;5117929;28;20046;-82
2024/01/28 08:22:41;;;;;;;87.32;42.92;;;;;;;-142.57;100.00;55777.81;5117370;28;20119;-82
2024/01/28 08:25:07;;;;;;;83.03;41.60;;;;;;;-142.57;100.00;55810.13;5117608;28;20051;-79
2024/01/28 08:27:33;;;;;;;82.38;40.92;;;;;;;-142.57;100.00;55802.06;5117074;28;20032;-82
2024/01/28 08:29:58;;;;;;;82.32;42.30;;;;;;;-142.57;100.00;55723.25;5115649;28;20042;-80
2024/01/28 08:32:24;;;;;;;84.15;41.80;;;;;;;-142.57;100.00;55745.47;5120148;28;20392;-81
2024/01/28 08:34:51;;;;;;;76.85;39.30;;;;;;;-142.57;100.00;55727.28;5120425;28;20059;-82
2024/01/28 08:37:17;;;;;;;81.07;41.25;;;;;;;-142.57;100.00;55733.34;5123019;28;20015;-84
2024/01/28 08:39:43;;;;;;;87.63;41.38;;;;;;;-142.57;100.00;55773.78;5119150;28;20050;-83
2024/01/28 08:42:08;;;;;;;99.10;44.80;;;;;;;-142.57;100.00;55850.56;5116252;28;20480;-83
2024/01/28 08:44:35;;;;;;;101.43;46.85;;;;;;;-142.57;100.00;55874.78;5119146;28;20027;-88
2024/01/28 08:47:01;;;;;;;99.63;47.45;;;;;;;-142.57;100.00;55919.25;5120046;28;20392;-87
2024/01/28 08:49:27;;;;;;;105.18;50.13;;;;;;;-142.57;100.00;55967.75;5118657;28;20031;-84
2024/01/28 08:51:52;;;;;;;106.93;49.53;;;;;;;-142.57;100.00;55925.31;5116758;28;20127;-85
2024/01/28 08:54:18;;;;;;;107.78;50.00;;;;;;;-142.57;100.00;55965.72;5117685;28;20085;-84
2024/01/28 08:56:44;;;;;;;107.57;49.03;;;;;;;-142.57;100.00;56014.22;5118279;28;20028;-89
2024/01/28 08:59:09;;;;;;;110.35;50.67;;;;;;;-142.57;100.00;55943.50;5117418;28;20376;-86
2024/01/28 09:01:35;;;;;;;111.07;46.85;;;;;;;-142.57;100.00;55846.50;5118438;28;20028;-82
2024/01/28 09:04:00;;;;;;;101.50;48.08;;;;;;;-142.57;100.00;55933.41;5116637;28;20055;-88
2024/01/28 09:06:26;;;;;;;105.78;46.63;;;;;;;-142.57;100.00;55890.97;5117107;28;20035;-81
2024/01/28 09:08:51;;;;;;;110.88;49.67;;;;;;;-142.57;100.00;55917.22;5115962;28;20126;-82
2024/01/28 09:11:17;;;;;;;115.22;49.08;;;;;;;-142.57;100.00;55915.22;5115360;28;20093;-82
2024/01/28 09:13:42;;;;;;;111.88;51.65;;;;;;;-142.57;100.00;55975.84;5115898;28;20433;-83
2024/01/28 09:16:08;;;;;;;117.45;52.08;;;;;;;-142.57;100.00;55994.00;5116312;28;20036;-84
2024/01/28 09:18:33;;;;;;;112.47;49.25;;;;;;;-142.57;100.00;56048.56;5116287;28;20047;-85
2024/01/28 09:20:59;;;;;;;116.85;50.88;;;;;;;-142.57;100.00;55951.59;5098570;28;20071;-80
2024/01/28 09:23:25;;;;;;;117.47;52.88;;;;;;;-142.57;100.00;55987.94;5117238;28;20035;-83
2024/01/28 09:25:50;;;;;;;113.55;49.72;;;;;;;-142.57;100.00;56048.56;5115889;28;20027;-81
2024/01/28 09:28:16;;;;;;;120.38;52.08;;;;;;;-142.57;100.00;55971.78;5115227;28;20544;-83
2024/01/28 09:30:43;;;;;;;129.98;50.53;;;;;;;-142.57;100.00;56040.50;5083381;28;20107;-82
2024/01/28 09:33:10;;;;;;;114.70;50.88;;;;;;;-142.57;100.00;56040.50;5075357;28;20083;-82
2024/01/28 09:35:39;;;;;;;115.00;50.03;;;;;;;-142.57;100.00;56070.81;5079225;28;20035;-83
2024/01/28 09:38:06;;;;;;;107.80;50.38;;;;;;;-142.57;100.00;55967.75;5082459;28;20381;-83
2024/01/28 09:40:32;;;;;;;116.70;51.33;;;;;;;-142.57;100.00;55967.75;5058765;28;20045;-90
2024/01/28 09:43:03;;;;;;;126.68;50.50;;;;;;;-142.57;100.00;55951.59;5077635;28;20039;-88
2024/01/28 09:45:29;;;;;;;118.80;51.10;;;;;;;-142.57;100.00;56036.44;5077687;28;20029;-87
2024/01/28 09:47:55;;;;;;;126.07;53.13;;;;;;;-142.57;100.00;56076.88;5078956;28;20021;-86
2024/01/28 09:50:21;;;;;;;128.20;53.55;;;;;;;-142.57;100.00;56072.81;5081826;28;20036;-85
2024/01/28 09:52:47;;;;;;;128.77;52.35;;;;;;;-142.57;100.00;56038.47;5080615;28;20064;-85
2024/01/28 09:55:12;;;;;;;130.93;54.03;;;;;;;-142.57;100.00;56028.38;5080022;28;20033;-89
2024/01/28 09:57:38;;;;;;;132.20;54.28;;;;;;;-142.57;100.00;56084.94;5078110;28;20039;-83
2024/01/28 10:00:07;;;;;;;143.55;55.55;;;;;;;-142.57;100.00;56113.25;5079723;28;20378;-85
2024/01/28 10:02:38;;;;;;;;;;;;;;;-142.57;100.00;56151.63;5078878;28;20611;-87
2024/01/28 10:05:05;;;;;;;138.52;55.90;;;;;;;-142.57;100.00;56210.22;5078806;28;20006;-86
2024/01/28 10:07:41;;;;;;;143.95;54.88;;;;;;;-142.57;100.00;56200.13;5079152;28;20041;-87
2024/01/28 10:10:07;;;;;;;163.50;56.25;;;;;;;-142.57;100.00;56190.03;5075426;28;20040;-91
2024/01/28 10:12:33;;;;;;;156.52;58.53;;;;;;;-142.57;100.00;56285.00;5075816;28;20434;-88
2024/01/28 10:14:58;;;;;;;142.93;56.00;;;;;;;-142.57;100.00;56379.97;5076265;28;20067;-83
2024/01/28 10:17:24;;;;;;;147.32;57.88;;;;;;;-142.57;100.00;56371.91;5078951;28;20035;-84
2024/01/28 10:19:49;;;;;;;153.77;59.30;;;;;;;-142.57;100.00;56414.34;5086481;28;20036;-81
2024/01/28 10:22:15;;;;;;;175.18;62.03;;;;;;;-142.57;100.00;56519.44;5081611;28;20037;-89
2024/01/28 10:24:42;;;;;;;162.57;61.40;;;;;;;-142.57;100.00;56517.41;5076864;28;20033;-85
2024/01/28 10:27:08;;;;;;;157.20;59.22;;;;;;;-142.57;100.00;56477.00;5077593;28;20574;-88
2024/01/28 10:29:34;;;;;;;163.32;60.72;;;;;;;-142.57;100.00;56481.03;5088281;28;20098;-82
2024/01/28 10:32:01;;;;;;;158.80;60.38;;;;;;;-142.57;100.00;56481.03;5098177;28;20032;-78
2024/01/28 10:34:27;;;;;;;149.38;58.28;;;;;;;-142.57;100.00;56408.28;5096005;28;20046;-83
2024/01/28 10:37:01;;;;;;;145.25;56.53;;;;;;;-142.57;100.00;56367.84;5096474;28;20111;-85
2024/01/28 10:39:34;;;;;;;141.35;54.90;;;;;;;-142.57;100.00;56335.53;5093486;28;20082;-82
2024/01/28 10:42:03;;;;;;;149.50;56.50;;;;;;;-142.57;100.00;56278.94;5082699;28;20032;-86
2024/01/28 10:44:34;;;;;;;142.68;51.15;;;;;;;-142.57;100.00;56226.41;5082062;28;20032;-82